Time;durP1;ratioP1;P1;durP2;ratioP2;P2;SDS_P1;SDS_P2;PMS_P1;PMS_P2;Temp;Humidity;BMP_temperature;BMP_pressure;BME280_temperature;BME280_humidity;BME280_pressure;Samples;Min_cycle;Max_cycle;Signal;HPM_P1;HPM_P2
2020/12/29 00:00:35;;;;;;;3.23;2.93;;;4.50;99.90;;;;;;5056549;28;20288;-61
2020/12/29 00:03:01;;;;;;;3.10;2.63;;;4.70;99.90;;;;;;5056744;28;20527;-61
2020/12/29 00:05:26;;;;;;;2.63;1.93;;;4.80;99.90;;;;;;5056660;28;20174;-61
2020/12/29 00:07:55;;;;;;;2.57;2.37;;;4.80;99.90;;;;;;5056810;28;20397;-61
2020/12/29 00:10:22;;;;;;;2.37;2.27;;;4.90;99.90;;;;;;5057161;28;20626;-61
2020/12/29 00:12:51;;;;;;;2.27;1.87;;;4.90;99.90;;;;;;5057324;28;20441;-61
2020/12/29 00:15:17;;;;;;;2.30;1.70;;;4.70;99.90;;;;;;5056119;28;20901;-61
2020/12/29 00:17:43;;;;;;;1.63;1.47;;;4.80;99.90;;;;;;5056207;28;20492;-60
2020/12/29 00:20:09;;;;;;;1.40;1.30;;;4.70;99.90;;;;;;5055435;28;20516;-61
2020/12/29 00:22:36;;;;;;;1.63;1.50;;;4.70;99.90;;;;;;5056238;28;20865;-62
2020/12/29 00:25:02;;;;;;;1.10;1.00;;;4.90;99.90;;;;;;5056121;28;20500;-62
2020/12/29 00:27:28;;;;;;;1.63;1.53;;;5.00;99.90;;;;;;5056054;28;20631;-62
2020/12/29 00:29:54;;;;;;;1.50;1.40;;;4.90;99.90;;;;;;5055457;28;20443;-61
2020/12/29 00:32:20;;;;;;;1.20;1.10;;;4.70;99.90;;;;;;5056208;28;20163;-61
2020/12/29 00:34:49;;;;;;;1.50;1.33;;;4.70;99.90;;;;;;5055611;28;20765;-62
2020/12/29 00:37:15;;;;;;;0.87;0.80;;;4.80;99.90;;;;;;5056591;28;20492;-60
2020/12/29 00:39:41;;;;;;;1.00;0.77;;;5.00;99.90;;;;;;5056854;28;20460;-61
2020/12/29 00:42:07;;;;;;;2.17;1.30;;;5.00;99.90;;;;;;5057154;28;20187;-60
2020/12/29 00:44:33;;;;;;;1.17;1.00;;;4.80;99.90;;;;;;5055764;28;20413;-61
2020/12/29 00:46:58;;;;;;;1.37;1.03;;;4.90;99.90;;;;;;5056826;28;20517;-61
2020/12/29 00:49:24;;;;;;;1.27;0.90;;;4.90;99.90;;;;;;5055979;28;20443;-60
2020/12/29 00:51:52;;;;;;;1.53;1.07;;;5.00;99.90;;;;;;5056699;28;20661;-60
2020/12/29 00:54:18;;;;;;;1.20;0.93;;;5.10;99.90;;;;;;5056858;28;20409;-60
2020/12/29 00:56:43;;;;;;;1.47;1.07;;;5.10;99.90;;;;;;5056111;28;20763;-60
2020/12/29 00:59:09;;;;;;;0.70;0.70;;;5.00;99.90;;;;;;5054859;28;20546;-62
2020/12/29 01:01:35;;;;;;;1.30;0.80;;;5.00;99.90;;;;;;5055836;28;20190;-61
2020/12/29 01:04:01;;;;;;;0.90;0.70;;;5.10;99.90;;;;;;5058118;28;20171;-61
2020/12/29 01:06:28;;;;;;;0.80;0.77;;;5.10;99.90;;;;;;5060025;28;20163;-63
2020/12/29 01:08:54;;;;;;;1.47;0.67;;;5.20;99.90;;;;;;5060159;28;20425;-60
2020/12/29 01:11:19;;;;;;;0.90;0.73;;;5.10;99.90;;;;;;5061666;28;20405;-60
2020/12/29 01:13:46;;;;;;;0.80;0.70;;;5.00;99.90;;;;;;5067880;28;20536;-60
2020/12/29 01:16:12;;;;;;;0.73;0.73;;;5.00;99.90;;;;;;5060331;28;20174;-61
2020/12/29 01:18:38;;;;;;;0.80;0.80;;;4.90;99.90;;;;;;5059926;28;20428;-60
2020/12/29 01:21:05;;;;;;;0.80;0.70;;;5.00;99.90;;;;;;5059527;28;20456;-60
2020/12/29 01:23:32;;;;;;;0.80;0.70;;;5.10;99.90;;;;;;5059318;28;20397;-59
2020/12/29 01:25:58;;;;;;;0.90;0.90;;;5.00;99.90;;;;;;5059737;28;20480;-60
2020/12/29 01:28:23;;;;;;;0.70;0.70;;;5.20;99.90;;;;;;5059393;28;20961;-60
2020/12/29 01:30:49;;;;;;;1.70;1.00;;;5.00;99.90;;;;;;5059717;28;20173;-60
2020/12/29 01:33:15;;;;;;;1.00;0.97;;;5.10;99.90;;;;;;5059498;28;20167;-60
2020/12/29 01:35:40;;;;;;;0.97;0.87;;;5.20;99.90;;;;;;5059189;28;20198;-61
2020/12/29 01:38:06;;;;;;;1.00;0.87;;;5.10;99.90;;;;;;5059505;28;20166;-60
2020/12/29 01:40:33;;;;;;;0.83;0.80;;;4.90;99.90;;;;;;5058994;28;20553;-62
2020/12/29 01:42:59;;;;;;;1.00;0.77;;;5.00;99.90;;;;;;5059098;28;20413;-62
2020/12/29 01:45:25;;;;;;;0.80;0.60;;;5.30;99.90;;;;;;5053656;28;20413;-62
2020/12/29 01:47:52;;;;;;;0.90;0.80;;;5.20;99.90;;;;;;5044814;28;20171;-62
2020/12/29 01:50:20;;;;;;;0.90;0.70;;;5.20;99.90;;;;;;5038708;28;20394;-61
2020/12/29 01:52:54;;;;;;;2.00;1.20;;;5.10;99.90;;;;;;5037262;28;20406;-64
2020/12/29 01:55:19;;;;;;;1.20;0.87;;;5.20;99.90;;;;;;5038425;28;20477;-62
2020/12/29 01:57:45;;;;;;;0.70;0.63;;;5.30;99.90;;;;;;5037911;28;20445;-62
2020/12/29 02:00:12;;;;;;;1.03;1.00;;;5.30;99.90;;;;;;5037762;28;20622;-61
2020/12/29 02:02:39;;;;;;;1.00;0.70;;;5.30;99.90;;;;;;5037894;28;20709;-62
2020/12/29 02:05:05;;;;;;;0.90;0.80;;;5.10;99.90;;;;;;5037783;28;20402;-64
2020/12/29 02:07:31;;;;;;;1.00;0.80;;;5.20;99.90;;;;;;5038010;28;20448;-60
2020/12/29 02:09:57;;;;;;;0.83;0.77;;;5.40;99.90;;;;;;5038053;28;20781;-61
2020/12/29 02:12:25;;;;;;;1.37;0.83;;;5.50;99.90;;;;;;5041721;28;20442;-61
2020/12/29 02:14:51;;;;;;;0.77;0.70;;;5.60;99.90;;;;;;5057716;28;20401;-61
2020/12/29 02:17:17;;;;;;;1.10;0.80;;;5.40;99.90;;;;;;5058644;28;20447;-59
2020/12/29 02:19:42;;;;;;;1.00;0.80;;;5.20;99.90;;;;;;5057602;28;20461;-60
2020/12/29 02:22:08;;;;;;;0.93;0.83;;;5.20;99.90;;;;;;5059226;28;20187;-61
2020/12/29 02:24:34;;;;;;;0.80;0.60;;;5.20;99.90;;;;;;5058942;28;20155;-61
2020/12/29 02:27:03;;;;;;;0.70;0.70;;;5.40;99.90;;;;;;5058455;28;20791;-61
2020/12/29 02:29:32;;;;;;;0.70;0.70;;;5.60;99.90;;;;;;5058198;28;20559;-61
2020/12/29 02:31:58;;;;;;;1.53;0.90;;;5.60;99.90;;;;;;5058067;28;20423;-61
2020/12/29 02:34:23;;;;;;;0.80;0.80;;;5.60;99.90;;;;;;5057915;28;20405;-61
2020/12/29 02:36:49;;;;;;;0.80;0.70;;;5.70;99.90;;;;;;5058612;28;20178;-61
2020/12/29 02:39:14;;;;;;;0.80;0.70;;;5.70;99.90;;;;;;5058423;28;20580;-60
2020/12/29 02:41:40;;;;;;;0.80;0.60;;;5.60;99.90;;;;;;5058090;28;20626;-61
2020/12/29 02:44:06;;;;;;;1.33;0.70;;;5.60;99.90;;;;;;5057692;28;20221;-60
2020/12/29 02:46:31;;;;;;;1.00;0.70;;;5.60;99.90;;;;;;5058055;28;20174;-61
2020/12/29 02:48:57;;;;;;;1.87;0.60;;;5.60;99.90;;;;;;5058743;28;20183;-61
2020/12/29 02:51:22;;;;;;;0.80;0.60;;;5.70;99.90;;;;;;5057756;28;20631;-60
2020/12/29 02:53:48;;;;;;;0.60;0.50;;;5.80;99.90;;;;;;5056609;28;20177;-59
2020/12/29 02:56:18;;;;;;;0.80;0.60;;;5.70;99.90;;;;;;5057756;28;20233;-60
2020/12/29 02:58:44;;;;;;;0.80;0.60;;;5.60;99.90;;;;;;5057398;28;20198;-59
2020/12/29 03:01:09;;;;;;;0.70;0.60;;;5.70;99.90;;;;;;5057095;28;20806;-60
2020/12/29 03:03:35;;;;;;;0.70;0.60;;;5.60;99.90;;;;;;5056964;28;20511;-60
2020/12/29 03:06:00;;;;;;;0.60;0.60;;;5.60;99.90;;;;;;5057250;28;20174;-61
2020/12/29 03:08:26;;;;;;;0.80;0.60;;;5.50;99.90;;;;;;5057222;28;20193;-61
2020/12/29 03:10:51;;;;;;;0.60;0.50;;;5.60;99.90;;;;;;5056895;28;20182;-61
2020/12/29 03:13:17;;;;;;;0.80;0.63;;;5.70;99.90;;;;;;5057291;28;20189;-61
2020/12/29 03:15:43;;;;;;;1.27;0.60;;;5.70;99.90;;;;;;5056927;28;20210;-61
2020/12/29 03:18:08;;;;;;;0.60;0.50;;;5.60;99.90;;;;;;5058007;28;20199;-61
2020/12/29 03:20:34;;;;;;;1.00;0.60;;;5.50;99.90;;;;;;5059193;28;20198;-61
2020/12/29 03:22:59;;;;;;;0.80;0.60;;;5.40;99.90;;;;;;5056494;28;20197;-61
2020/12/29 03:25:25;;;;;;;1.00;0.60;;;5.30;99.90;;;;;;5056457;28;20171;-61
2020/12/29 03:27:50;;;;;;;1.67;0.60;;;5.50;99.90;;;;;;5056559;28;20170;-61
2020/12/29 03:30:16;;;;;;;1.17;0.50;;;5.40;99.90;;;;;;5056500;28;20163;-61
2020/12/29 03:32:42;;;;;;;1.27;1.17;;;5.50;99.90;;;;;;5057097;28;20257;-61
2020/12/29 03:35:08;;;;;;;0.70;0.50;;;5.40;99.90;;;;;;5057035;28;20542;-61
2020/12/29 03:37:34;;;;;;;0.73;0.50;;;5.50;99.90;;;;;;5057195;28;20167;-60
2020/12/29 03:39:59;;;;;;;0.70;0.60;;;5.40;99.90;;;;;;5057084;28;20795;-60
2020/12/29 03:42:25;;;;;;;0.80;0.60;;;5.40;99.90;;;;;;5055363;28;20293;-59
2020/12/29 03:44:50;;;;;;;0.63;0.53;;;5.40;99.90;;;;;;5056786;28;20311;-61
2020/12/29 03:47:16;;;;;;;0.90;0.60;;;5.30;99.90;;;;;;5057378;28;20181;-61
2020/12/29 03:49:45;;;;;;;0.60;0.50;;;5.30;99.90;;;;;;5056672;28;20651;-63
2020/12/29 03:52:11;;;;;;;1.33;0.60;;;5.30;99.90;;;;;;5057869;28;20188;-62
2020/12/29 03:54:36;;;;;;;1.27;0.70;;;5.20;99.90;;;;;;5057400;28;20567;-62
2020/12/29 03:57:02;;;;;;;1.10;0.83;;;5.10;99.90;;;;;;5057097;28;20178;-62
2020/12/29 03:59:27;;;;;;;0.70;0.50;;;5.10;99.90;;;;;;5056786;28;20194;-62
2020/12/29 04:01:53;;;;;;;0.80;0.50;;;5.10;99.90;;;;;;5056854;28;20277;-61
2020/12/29 04:04:18;;;;;;;1.00;0.70;;;5.10;99.90;;;;;;5056163;28;20179;-61
2020/12/29 04:06:44;;;;;;;0.60;0.50;;;5.20;99.90;;;;;;5056020;28;20175;-61
2020/12/29 04:09:10;;;;;;;1.00;0.50;;;5.30;99.90;;;;;;5056637;28;20681;-62
2020/12/29 04:11:35;;;;;;;1.13;0.60;;;5.10;99.90;;;;;;5056361;28;20657;-61
2020/12/29 04:14:01;;;;;;;0.80;0.60;;;5.20;99.90;;;;;;5054474;28;20197;-62
2020/12/29 04:16:26;;;;;;;0.90;0.70;;;5.20;99.90;;;;;;5057037;28;20171;-62
2020/12/29 04:18:52;;;;;;;1.03;0.50;;;5.20;99.90;;;;;;5055478;28;20193;-61
2020/12/29 04:21:18;;;;;;;2.60;0.70;;;5.20;99.90;;;;;;5055030;28;20293;-61
2020/12/29 04:23:44;;;;;;;1.10;0.97;;;5.20;99.90;;;;;;5055083;28;20200;-62
2020/12/29 04:26:14;;;;;;;1.90;0.73;;;5.10;99.90;;;;;;5055448;28;20488;-60
2020/12/29 04:28:39;;;;;;;2.40;0.60;;;5.10;99.90;;;;;;5055335;28;20190;-61
2020/12/29 04:31:08;;;;;;;1.23;0.73;;;5.10;99.90;;;;;;5055376;28;20405;-62
2020/12/29 04:33:33;;;;;;;1.90;0.60;;;5.30;99.90;;;;;;5055568;28;20166;-62
2020/12/29 04:35:59;;;;;;;0.70;0.50;;;5.30;99.90;;;;;;5056270;28;20487;-62
2020/12/29 04:38:24;;;;;;;1.60;0.80;;;5.40;99.90;;;;;;5053881;28;20202;-62
2020/12/29 04:40:50;;;;;;;2.03;0.70;;;5.60;99.90;;;;;;5044130;28;20253;-62
2020/12/29 04:43:16;;;;;;;0.83;0.50;;;5.50;99.90;;;;;;5048327;28;20174;-62
2020/12/29 04:45:41;;;;;;;0.60;0.50;;;5.40;99.90;;;;;;5059905;28;20245;-62
2020/12/29 04:48:08;;;;;;;1.63;0.70;;;5.30;99.90;;;;;;5059989;28;20181;-62
2020/12/29 04:50:36;;;;;;;1.30;0.70;;;5.30;99.90;;;;;;5060259;28;20544;-62
2020/12/29 04:53:04;;;;;;;1.80;0.80;;;5.30;99.90;;;;;;5060165;28;20851;-60
2020/12/29 04:55:30;;;;;;;1.37;0.60;;;5.30;99.90;;;;;;5060439;28;20448;-62
2020/12/29 04:57:58;;;;;;;0.90;0.60;;;5.10;99.90;;;;;;5059659;28;20416;-62
2020/12/29 05:00:25;;;;;;;1.33;0.63;;;5.10;99.90;;;;;;5060295;28;20494;-62
2020/12/29 05:02:51;;;;;;;1.07;0.60;;;5.20;99.90;;;;;;5060157;28;20405;-61
2020/12/29 05:05:17;;;;;;;1.23;0.60;;;5.30;99.90;;;;;;5060646;28;20820;-61
2020/12/29 05:07:45;;;;;;;1.67;0.77;;;5.30;99.90;;;;;;5060559;28;20401;-60
2020/12/29 05:10:11;;;;;;;1.83;1.03;;;5.10;99.90;;;;;;5059676;28;20534;-61
2020/12/29 05:12:48;;;;;;;0.83;0.63;;;5.00;99.90;;;;;;5058847;28;20421;-61
2020/12/29 05:15:14;;;;;;;1.03;0.50;;;4.90;99.90;;;;;;5061425;28;20256;-61
2020/12/29 05:17:39;;;;;;;1.83;0.93;;;4.90;99.90;;;;;;5058889;28;20408;-61
2020/12/29 05:20:06;;;;;;;3.67;0.70;;;4.90;99.90;;;;;;5059234;28;20829;-61
2020/12/29 05:22:36;;;;;;;2.40;0.70;;;5.00;99.90;;;;;;5059228;28;20312;-59
2020/12/29 05:25:03;;;;;;;1.40;0.83;;;5.00;99.90;;;;;;5058916;28;20894;-61
2020/12/29 05:27:29;;;;;;;1.13;0.70;;;5.10;99.90;;;;;;5058525;28;20416;-61
2020/12/29 05:29:55;;;;;;;0.90;0.90;;;5.10;99.90;;;;;;5058516;28;20425;-61
2020/12/29 05:32:23;;;;;;;6.00;1.00;;;5.00;99.90;;;;;;5059254;28;20427;-61
2020/12/29 05:34:49;;;;;;;1.20;0.70;;;4.90;99.90;;;;;;5059748;28;20224;-61
2020/12/29 05:37:15;;;;;;;3.43;1.10;;;4.90;99.90;;;;;;5059240;28;20405;-61
2020/12/29 05:39:41;;;;;;;2.47;1.20;;;4.90;99.90;;;;;;5059202;28;20190;-60
2020/12/29 05:42:07;;;;;;;2.83;1.20;;;4.90;99.90;;;;;;5058700;28;20453;-60
2020/12/29 05:44:35;;;;;;;1.30;0.70;;;4.90;99.90;;;;;;5058825;28;20328;-60
2020/12/29 05:47:03;;;;;;;4.17;1.63;;;5.00;99.90;;;;;;5058980;28;20742;-60
2020/12/29 05:49:31;;;;;;;0.80;0.60;;;5.00;99.90;;;;;;5057869;28;20551;-61
2020/12/29 05:51:57;;;;;;;1.03;0.50;;;5.00;99.90;;;;;;5058707;28;20404;-60
2020/12/29 05:54:24;;;;;;;0.90;0.70;;;5.00;99.90;;;;;;5058413;28;20417;-60
2020/12/29 05:56:51;;;;;;;1.13;1.00;;;5.10;99.90;;;;;;5058513;28;20409;-61
2020/12/29 05:59:18;;;;;;;0.77;0.63;;;5.00;99.90;;;;;;5058061;28;20857;-61
2020/12/29 06:01:47;;;;;;;1.13;0.70;;;5.00;99.90;;;;;;5058453;28;20462;-60
2020/12/29 06:04:14;;;;;;;0.87;0.60;;;5.00;99.90;;;;;;5058690;28;20394;-61
2020/12/29 06:06:44;;;;;;;1.00;0.90;;;5.00;99.90;;;;;;5059120;28;20413;-61
2020/12/29 06:09:14;;;;;;;1.00;0.67;;;4.90;99.90;;;;;;5057242;28;20439;-61
2020/12/29 06:11:53;;;;;;;0.93;0.63;;;5.00;99.90;;;;;;5058591;28;20437;-60
2020/12/29 06:14:20;;;;;;;1.23;0.83;;;4.90;99.90;;;;;;5057234;28;20425;-61
2020/12/29 06:16:46;;;;;;;0.87;0.70;;;4.90;99.90;;;;;;5058563;28;20413;-61
2020/12/29 06:19:29;;;;;;;1.13;0.60;;;4.80;99.90;;;;;;5058102;28;20437;-60
2020/12/29 06:22:04;;;;;;;1.97;0.63;;;4.80;99.90;;;;;;5056867;28;20449;-60
2020/12/29 06:24:31;;;;;;;1.27;0.80;;;4.90;99.90;;;;;;5057969;28;20811;-60
2020/12/29 06:27:00;;;;;;;1.17;0.70;;;4.90;99.90;;;;;;5058608;28;20470;-61
2020/12/29 06:29:44;;;;;;;1.10;0.70;;;4.90;99.90;;;;;;5057276;28;20464;-61
2020/12/29 06:32:09;;;;;;;4.07;1.17;;;4.80;99.90;;;;;;5058088;28;20800;-61
2020/12/29 06:34:35;;;;;;;1.20;0.83;;;4.80;99.90;;;;;;5058043;28;20600;-61
2020/12/29 06:37:24;;;;;;;3.27;0.90;;;4.80;99.90;;;;;;5057523;28;20288;-61
2020/12/29 06:39:57;;;;;;;0.87;0.60;;;4.80;99.90;;;;;;5057644;28;20429;-60
2020/12/29 06:42:23;;;;;;;1.00;0.90;;;4.80;99.90;;;;;;5057251;28;21028;-62
2020/12/29 06:44:56;;;;;;;1.00;0.60;;;4.70;99.90;;;;;;5056814;28;20409;-62
2020/12/29 06:47:24;;;;;;;1.00;0.67;;;4.80;99.90;;;;;;5056662;28;20398;-61
2020/12/29 06:49:51;;;;;;;1.00;0.70;;;4.90;99.90;;;;;;5057480;28;20431;-62
2020/12/29 06:52:18;;;;;;;1.27;0.83;;;4.90;99.90;;;;;;5057666;28;20407;-61
2020/12/29 06:54:49;;;;;;;0.77;0.70;;;4.80;99.90;;;;;;5057803;28;20413;-61
2020/12/29 06:57:15;;;;;;;0.90;0.70;;;4.80;99.90;;;;;;5057324;28;20401;-61
2020/12/29 06:59:41;;;;;;;1.73;0.80;;;4.90;99.90;;;;;;5057012;28;20475;-61
2020/12/29 07:02:19;;;;;;;2.07;0.70;;;4.90;99.90;;;;;;5057218;28;20437;-62
2020/12/29 07:04:54;;;;;;;1.80;0.70;;;4.90;99.90;;;;;;5058499;28;20378;-61
2020/12/29 07:07:26;;;;;;;0.87;0.60;;;4.90;99.90;;;;;;5058765;28;20475;-62
2020/12/29 07:10:11;;;;;;;1.10;0.80;;;4.90;99.90;;;;;;5057115;28;20449;-60
2020/12/29 07:12:42;;;;;;;1.00;0.77;;;4.90;99.90;;;;;;5056759;28;20416;-61
2020/12/29 07:15:09;;;;;;;0.97;0.77;;;4.80;99.90;;;;;;5057665;28;20386;-61
2020/12/29 07:17:34;;;;;;;1.40;0.70;;;4.80;99.90;;;;;;5057289;28;20492;-60
2020/12/29 07:20:00;;;;;;;1.47;0.90;;;5.00;99.90;;;;;;5056569;28;20473;-60
2020/12/29 07:22:26;;;;;;;1.77;0.90;;;5.00;99.90;;;;;;5056224;28;20232;-61
2020/12/29 07:24:55;;;;;;;1.93;1.00;;;5.10;99.90;;;;;;5059131;28;20580;-61
2020/12/29 07:27:21;;;;;;;5.20;1.37;;;5.00;99.90;;;;;;5056896;28;20492;-61
2020/12/29 07:29:54;;;;;;;1.10;0.70;;;5.10;99.90;;;;;;5055732;28;21011;-61
2020/12/29 07:32:20;;;;;;;3.27;1.13;;;5.20;99.90;;;;;;5050610;28;20171;-61
2020/12/29 07:34:47;;;;;;;2.70;1.53;;;5.20;99.90;;;;;;5035863;28;20494;-61
2020/12/29 07:37:15;;;;;;;1.40;1.17;;;5.30;99.90;;;;;;5037417;28;20179;-62
2020/12/29 07:39:44;;;;;;;1.80;1.10;;;5.10;99.90;;;;;;5038153;28;20813;-61
2020/12/29 07:42:11;;;;;;;2.80;1.40;;;5.20;99.90;;;;;;5037040;28;20891;-61
2020/12/29 07:44:37;;;;;;;2.13;1.00;;;5.30;99.90;;;;;;5055375;28;20431;-62
2020/12/29 07:47:02;;;;;;;2.30;1.50;;;5.40;99.90;;;;;;5056195;28;20417;-61
2020/12/29 07:49:28;;;;;;;4.77;1.83;;;5.40;99.90;;;;;;5056066;28;20650;-61
2020/12/29 07:51:54;;;;;;;2.83;2.27;;;5.30;99.90;;;;;;5056091;28;20175;-60
2020/12/29 07:54:19;;;;;;;1.20;1.10;;;5.20;99.90;;;;;;5055771;28;20182;-61
2020/12/29 07:56:45;;;;;;;3.20;1.00;;;5.40;99.90;;;;;;5055928;28;20178;-61
2020/12/29 07:59:12;;;;;;;2.73;1.00;;;5.50;99.90;;;;;;5055647;28;20190;-62
2020/12/29 08:02:07;;;;;;;3.97;0.90;;;5.50;99.90;;;;;;5056143;28;20889;-61
2020/12/29 08:04:34;;;;;;;3.23;1.10;;;5.50;99.90;;;;;;5055204;28;20417;-61
2020/12/29 08:07:08;;;;;;;0.80;0.70;;;5.60;99.90;;;;;;5055958;28;20421;-61
2020/12/29 08:09:47;;;;;;;1.20;1.10;;;5.60;99.90;;;;;;5057247;28;20532;-62
2020/12/29 08:12:16;;;;;;;2.87;0.97;;;5.50;99.90;;;;;;5055722;28;20409;-62
2020/12/29 08:14:42;;;;;;;2.50;1.30;;;5.50;99.90;;;;;;5054774;28;20421;-62
2020/12/29 08:17:08;;;;;;;1.47;1.00;;;5.50;99.90;;;;;;5056128;28;20925;-61
2020/12/29 08:19:34;;;;;;;1.70;1.10;;;5.60;99.90;;;;;;5058082;28;20712;-62
2020/12/29 08:22:08;;;;;;;1.10;1.00;;;5.50;99.90;;;;;;5058024;28;20454;-62
2020/12/29 08:24:35;;;;;;;1.30;0.70;;;5.60;99.90;;;;;;5058266;28;20416;-62
2020/12/29 08:27:01;;;;;;;1.83;1.20;;;5.70;99.90;;;;;;5059597;28;20435;-62
2020/12/29 08:29:27;;;;;;;3.10;1.10;;;5.70;99.90;;;;;;5056613;28;20471;-62
2020/12/29 08:32:06;;;;;;;2.70;1.30;;;5.70;99.90;;;;;;5059145;28;20405;-62
2020/12/29 08:34:33;;;;;;;2.93;1.57;;;5.70;99.90;;;;;;5057072;28;20456;-62
2020/12/29 08:37:01;;;;;;;1.23;1.13;;;5.70;99.90;;;;;;5058001;28;20412;-62
2020/12/29 08:39:46;;;;;;;2.40;1.40;;;5.90;99.90;;;;;;5058504;28;20429;-62
2020/12/29 08:42:12;;;;;;;1.60;0.80;;;5.90;99.90;;;;;;5058662;28;20789;-62
2020/12/29 08:44:47;;;;;;;1.70;1.20;;;6.10;99.90;;;;;;5055992;28;20417;-62
2020/12/29 08:47:14;;;;;;;1.73;1.10;;;6.20;99.90;;;;;;5056209;28;20415;-60
2020/12/29 08:49:40;;;;;;;1.00;1.00;;;6.10;99.90;;;;;;5055350;28;20425;-59
2020/12/29 08:52:06;;;;;;;1.20;0.70;;;6.10;99.90;;;;;;5056763;28;20469;-61
2020/12/29 08:54:37;;;;;;;1.83;1.23;;;6.10;99.90;;;;;;5056370;28;20413;-60
2020/12/29 08:57:05;;;;;;;2.83;0.90;;;6.10;99.90;;;;;;5056056;28;20178;-61
2020/12/29 08:59:39;;;;;;;1.83;1.00;;;5.90;99.90;;;;;;5055589;28;20486;-61
2020/12/29 09:02:06;;;;;;;5.60;2.23;;;5.90;99.90;;;;;;5055620;28;20507;-62
2020/12/29 09:04:37;;;;;;;3.00;1.37;;;6.10;99.90;;;;;;5055861;28;20769;-61
2020/12/29 09:07:15;;;;;;;2.23;1.37;;;6.20;99.90;;;;;;5055614;28;20406;-61
2020/12/29 09:09:50;;;;;;;2.60;1.23;;;6.10;99.90;;;;;;5056090;28;20932;-62
2020/12/29 09:12:21;;;;;;;4.63;1.50;;;5.90;99.90;;;;;;5055874;28;20512;-62
2020/12/29 09:14:58;;;;;;;1.73;1.20;;;5.90;99.90;;;;;;5054309;28;20424;-61
2020/12/29 09:17:31;;;;;;;1.03;0.97;;;5.80;99.90;;;;;;5055931;28;20413;-60
2020/12/29 09:20:11;;;;;;;1.40;0.90;;;5.70;99.90;;;;;;5055766;28;20870;-62
2020/12/29 09:22:56;;;;;;;1.00;0.93;;;5.80;99.90;;;;;;5055930;28;20491;-62
2020/12/29 09:25:31;;;;;;;0.97;0.97;;;6.00;99.90;;;;;;5061104;28;20392;-62
2020/12/29 09:28:09;;;;;;;1.27;0.80;;;5.80;99.90;;;;;;5060154;28;20396;-61
2020/12/29 09:30:35;;;;;;;1.53;0.93;;;5.50;99.90;;;;;;5058768;28;20405;-60
2020/12/29 09:33:00;;;;;;;1.20;1.00;;;5.40;99.90;;;;;;5060017;28;20497;-60
2020/12/29 09:35:26;;;;;;;1.03;0.90;;;5.50;99.90;;;;;;5060067;28;20175;-61
2020/12/29 09:37:57;;;;;;;6.67;1.47;;;5.50;99.90;;;;;;5059602;28;20179;-61
2020/12/29 09:40:23;;;;;;;1.90;1.33;;;5.70;99.90;;;;;;5059912;28;20385;-61
2020/12/29 09:42:50;;;;;;;2.13;1.20;;;5.90;99.90;;;;;;5059986;28;20413;-61
2020/12/29 09:45:21;;;;;;;0.87;0.70;;;5.90;99.90;;;;;;5060904;28;20477;-61
2020/12/29 09:47:47;;;;;;;3.93;1.23;;;5.80;99.90;;;;;;5062538;28;20440;-61
2020/12/29 09:50:13;;;;;;;1.63;0.97;;;6.10;99.90;;;;;;5059587;28;20459;-61
2020/12/29 09:52:39;;;;;;;1.10;0.80;;;6.10;99.90;;;;;;5060782;28;20409;-61
2020/12/29 09:55:05;;;;;;;1.47;1.10;;;6.20;99.90;;;;;;5062441;28;20269;-61
2020/12/29 09:57:31;;;;;;;2.50;1.00;;;6.10;99.90;;;;;;5061138;28;20448;-61
2020/12/29 09:59:57;;;;;;;1.00;0.73;;;6.10;99.90;;;;;;5060144;28;20194;-60
2020/12/29 10:02:23;;;;;;;1.30;1.07;;;6.20;99.90;;;;;;5059682;28;20218;-61
2020/12/29 10:04:48;;;;;;;1.30;1.03;;;6.30;99.90;;;;;;5059702;28;20408;-60
2020/12/29 10:07:14;;;;;;;1.13;0.70;;;6.40;99.90;;;;;;5059636;28;20417;-60
2020/12/29 10:09:40;;;;;;;1.80;1.07;;;6.30;99.90;;;;;;5059993;28;20218;-60
2020/12/29 10:12:06;;;;;;;1.00;0.90;;;6.20;99.90;;;;;;5059130;28;20858;-61
2020/12/29 10:14:31;;;;;;;1.90;0.83;;;6.10;99.90;;;;;;5058570;28;20301;-60
2020/12/29 10:16:57;;;;;;;1.37;0.80;;;6.20;99.90;;;;;;5058540;28;20171;-59
2020/12/29 10:19:22;;;;;;;1.10;0.97;;;6.10;99.90;;;;;;5061161;28;20190;-61
2020/12/29 10:21:52;;;;;;;0.80;0.80;;;6.40;99.90;;;;;;5060279;28;20682;-61
2020/12/29 10:24:19;;;;;;;1.33;1.00;;;6.40;99.90;;;;;;5055332;28;20190;-61
2020/12/29 10:26:44;;;;;;;0.83;0.80;;;6.40;99.90;;;;;;5040312;28;20418;-61
2020/12/29 10:29:10;;;;;;;0.80;0.70;;;6.40;99.90;;;;;;5038848;28;20766;-59
2020/12/29 10:31:36;;;;;;;0.80;0.70;;;6.60;99.90;;;;;;5039167;28;20711;-61
2020/12/29 10:34:02;;;;;;;1.07;0.97;;;6.40;99.90;;;;;;5039301;28;20670;-61
2020/12/29 10:36:46;;;;;;;3.80;1.20;;;6.30;99.90;;;;;;5038316;28;20171;-60
2020/12/29 10:39:13;;;;;;;1.83;1.00;;;6.30;99.90;;;;;;5038003;28;20433;-61
2020/12/29 10:41:40;;;;;;;0.90;0.90;;;6.40;99.90;;;;;;5039913;28;20446;-61
2020/12/29 10:44:08;;;;;;;1.67;1.23;;;6.50;99.90;;;;;;5038880;28;20430;-61
2020/12/29 10:46:33;;;;;;;1.60;1.00;;;6.50;99.90;;;;;;5056728;28;20817;-60
2020/12/29 10:48:59;;;;;;;2.10;1.00;;;6.60;99.90;;;;;;5058840;28;20422;-60
2020/12/29 10:51:26;;;;;;;0.97;0.87;;;6.80;99.90;;;;;;5059742;28;20189;-61
2020/12/29 10:53:53;;;;;;;0.90;0.83;;;7.10;99.90;;;;;;5059864;28;20175;-61
2020/12/29 10:56:19;;;;;;;1.00;0.87;;;7.20;99.90;;;;;;5058839;28;20436;-61
2020/12/29 10:58:45;;;;;;;1.30;0.90;;;7.20;99.90;;;;;;5058383;28;20803;-60
2020/12/29 11:01:13;;;;;;;1.47;0.90;;;7.10;99.90;;;;;;5059182;28;20454;-62
2020/12/29 11:03:39;;;;;;;1.10;0.77;;;7.40;99.90;;;;;;5059074;28;20478;-63
2020/12/29 11:06:15;;;;;;;1.53;0.70;;;7.00;99.90;;;;;;5059420;28;20405;-63
2020/12/29 11:08:41;;;;;;;1.17;1.07;;;7.10;99.90;;;;;;5058337;28;20524;-62
2020/12/29 11:11:07;;;;;;;1.00;0.80;;;7.40;99.90;;;;;;5058924;28;20401;-62
2020/12/29 11:13:32;;;;;;;3.17;1.10;;;7.60;99.90;;;;;;5058908;28;20406;-62
2020/12/29 11:15:58;;;;;;;1.10;0.93;;;7.60;99.90;;;;;;5057662;28;20451;-62
2020/12/29 11:18:23;;;;;;;1.30;0.80;;;7.40;99.90;;;;;;5058401;28;20194;-60
2020/12/29 11:20:53;;;;;;;2.00;1.03;;;7.40;99.90;;;;;;5057640;28;20199;-62
2020/12/29 11:23:19;;;;;;;1.10;0.80;;;8.20;99.90;;;;;;5058323;28;20168;-62
2020/12/29 11:25:45;;;;;;;1.37;0.80;;;9.20;99.90;;;;;;5059036;28;20402;-62
2020/12/29 11:28:11;;;;;;;0.90;0.60;;;9.20;99.90;;;;;;5061430;28;20464;-62
2020/12/29 11:30:37;;;;;;;0.97;0.87;;;9.40;99.90;;;;;;5058725;28;20579;-62
2020/12/29 11:33:03;;;;;;;1.63;0.90;;;9.30;99.90;;;;;;5059290;28;20408;-63
2020/12/29 11:35:28;;;;;;;1.60;1.33;;;10.70;99.90;;;;;;5059426;28;20193;-62
2020/12/29 11:37:54;;;;;;;1.17;0.80;;;12.80;99.90;;;;;;5057762;28;20202;-62
2020/12/29 11:40:20;;;;;;;0.97;0.77;;;13.70;99.20;;;;;;5058398;28;20162;-63
2020/12/29 11:42:45;;;;;;;1.20;0.60;;;14.90;97.60;;;;;;5057547;28;20203;-62
2020/12/29 11:45:11;;;;;;;1.40;0.80;;;14.50;96.20;;;;;;5056167;28;20468;-61
2020/12/29 11:47:36;;;;;;;1.20;0.80;;;13.20;97.50;;;;;;5056410;28;20245;-62
2020/12/29 11:50:03;;;;;;;0.87;0.70;;;12.80;98.40;;;;;;5055916;28;20226;-62
2020/12/29 11:52:28;;;;;;;2.90;0.60;;;11.80;99.40;;;;;;5056317;28;20159;-61
2020/12/29 11:54:54;;;;;;;0.90;0.70;;;11.10;99.60;;;;;;5056536;28;20410;-61
2020/12/29 11:57:20;;;;;;;0.80;0.63;;;10.50;99.90;;;;;;5056674;28;20168;-61
2020/12/29 11:59:45;;;;;;;1.30;0.80;;;9.50;99.90;;;;;;5056837;28;20711;-62
2020/12/29 12:02:11;;;;;;;1.00;0.70;;;8.80;99.90;;;;;;5056875;28;20251;-62
2020/12/29 12:04:36;;;;;;;1.20;0.80;;;9.00;99.90;;;;;;5058251;28;20170;-62
2020/12/29 12:07:05;;;;;;;0.90;0.70;;;9.30;99.90;;;;;;5057053;28;20283;-62
2020/12/29 12:09:31;;;;;;;0.90;0.70;;;8.90;99.90;;;;;;5055908;28;20189;-62
2020/12/29 12:11:57;;;;;;;1.63;0.73;;;8.70;99.90;;;;;;5056277;28;20452;-62
2020/12/29 12:14:22;;;;;;;1.57;0.50;;;8.60;99.90;;;;;;5055886;28;20414;-61
2020/12/29 12:16:48;;;;;;;1.67;0.80;;;8.60;99.90;;;;;;5055683;28;20550;-61
2020/12/29 12:19:14;;;;;;;1.23;0.80;;;8.80;99.90;;;;;;5057301;28;20197;-62
2020/12/29 12:21:39;;;;;;;1.40;0.80;;;8.90;99.90;;;;;;5056819;28;20238;-62
2020/12/29 12:24:05;;;;;;;0.90;0.70;;;8.40;99.90;;;;;;5056979;28;20231;-62
2020/12/29 12:26:30;;;;;;;1.50;0.70;;;8.00;99.90;;;;;;5057121;28;20167;-62
2020/12/29 12:28:56;;;;;;;1.00;0.80;;;7.90;99.90;;;;;;5057340;28;20212;-62
2020/12/29 12:31:22;;;;;;;1.40;0.60;;;8.00;99.90;;;;;;5056418;28;20167;-61
2020/12/29 12:33:48;;;;;;;1.50;0.80;;;8.10;99.90;;;;;;5056265;28;20189;-62
2020/12/29 12:36:14;;;;;;;1.03;0.60;;;8.30;99.90;;;;;;5056054;28;20449;-62
2020/12/29 12:38:44;;;;;;;1.00;0.70;;;8.60;99.90;;;;;;5055730;28;20429;-61
2020/12/29 12:41:10;;;;;;;1.27;0.90;;;9.00;99.90;;;;;;5057449;28;20480;-62
2020/12/29 12:43:36;;;;;;;1.13;1.03;;;9.00;99.90;;;;;;5057038;28;20403;-62
2020/12/29 12:46:03;;;;;;;1.40;1.07;;;8.40;99.90;;;;;;5056885;28;20410;-61
2020/12/29 12:48:29;;;;;;;1.17;0.83;;;8.60;99.90;;;;;;5056125;28;20435;-61
2020/12/29 12:50:55;;;;;;;1.00;0.80;;;8.80;99.90;;;;;;5057594;28;20408;-62
2020/12/29 12:53:21;;;;;;;1.57;0.77;;;8.90;99.90;;;;;;5057202;28;20406;-61
2020/12/29 12:55:46;;;;;;;1.00;0.70;;;8.80;99.90;;;;;;5057583;28;20535;-60
2020/12/29 12:58:12;;;;;;;2.20;0.90;;;8.70;99.90;;;;;;5058469;28;20196;-60